Time;durP1;ratioP1;P1;durP2;ratioP2;P2;SDS_P1;SDS_P2;PMS_P1;PMS_P2;Temp;Humidity;BMP_temperature;BMP_pressure;BME280_temperature;BME280_humidity;BME280_pressure;Samples;Min_cycle;Max_cycle;Signal;HPM_P1;HPM_P2
2021/12/21 00:02:25;;;;;;;22.75;4.53;;;6.20;99.90;;;;;;5084105;28;20024;-73
2021/12/21 00:04:50;;;;;;;21.88;3.58;;;6.20;99.80;;;;;;5082827;28;20025;-74
2021/12/21 00:07:16;;;;;;;21.55;4.10;;;6.20;99.70;;;;;;5082709;28;20095;-73
2021/12/21 00:09:42;;;;;;;25.08;3.53;;;6.20;99.80;;;;;;5083807;28;20083;-73
2021/12/21 00:12:09;;;;;;;21.45;4.10;;;6.20;99.80;;;;;;5084107;28;20028;-73
2021/12/21 00:14:50;;;;;;;20.27;3.58;;;6.20;99.70;;;;;;5083832;28;20115;-73
2021/12/21 00:17:32;;;;;;;19.92;4.18;;;6.20;99.70;;;;;;5082841;28;20059;-74
2021/12/21 00:25:29;;;;;;;22.38;3.70;;;6.20;99.80;;;;;;5082561;28;20032;-74
2021/12/21 00:27:55;;;;;;;26.73;4.82;;;6.20;99.80;;;;;;5082486;28;20016;-74
2021/12/21 00:30:22;;;;;;;23.25;3.75;;;6.20;99.90;;;;;;5083699;28;20055;-73
2021/12/21 00:32:48;;;;;;;21.13;3.70;;;6.20;99.90;;;;;;5083888;28;20084;-73
2021/12/21 00:35:14;;;;;;;24.70;4.43;;;6.20;99.90;;;;;;5085607;28;20036;-73
2021/12/21 00:37:41;;;;;;;29.35;4.55;;;6.20;99.90;;;;;;5087843;28;20016;-74
2021/12/21 00:40:08;;;;;;;23.02;3.88;;;6.20;99.80;;;;;;5087636;28;20024;-73
2021/12/21 00:42:34;;;;;;;21.10;3.60;;;6.20;99.90;;;;;;5087697;28;20088;-74
2021/12/21 00:45:00;;;;;;;23.25;4.00;;;6.10;99.90;;;;;;5086327;28;20036;-74
2021/12/21 00:47:26;;;;;;;23.23;4.35;;;6.10;99.90;;;;;;5086269;28;20024;-74
2021/12/21 00:49:59;;;;;;;26.67;4.65;;;6.10;99.90;;;;;;5087757;28;20024;-74
2021/12/21 00:52:26;;;;;;;26.92;3.67;;;6.10;99.90;;;;;;5086412;28;20024;-74
2021/12/21 00:54:51;;;;;;;26.75;4.32;;;6.10;99.90;;;;;;5086174;28;20020;-74
2021/12/21 00:57:18;;;;;;;15.18;3.25;;;6.10;99.90;;;;;;5085623;28;20021;-74
2021/12/21 00:59:43;;;;;;;23.30;3.47;;;6.00;99.90;;;;;;5087164;28;20024;-73
2021/12/21 01:02:10;;;;;;;23.58;3.85;;;6.00;99.90;;;;;;5087299;28;20299;-73
2021/12/21 01:04:41;;;;;;;23.73;3.50;;;6.00;99.90;;;;;;5086210;28;20024;-75
2021/12/21 01:07:25;;;;;;;24.67;4.38;;;6.00;99.90;;;;;;5086083;28;20023;-74
2021/12/21 01:12:48;;;;;;;28.17;3.22;;;6.00;99.90;;;;;;5086129;28;20272;-73
2021/12/21 01:18:02;;;;;;;25.55;4.05;;;6.00;99.90;;;;;;5086095;28;20017;-74
2021/12/21 01:20:34;;;;;;;28.83;3.97;;;6.00;99.90;;;;;;5086573;28;20024;-74
2021/12/21 01:23:30;;;;;;;25.85;3.70;;;6.00;99.90;;;;;;5085731;28;20052;-74
2021/12/21 01:28:44;;;;;;;23.42;4.00;;;6.10;99.90;;;;;;5085539;28;20027;-73
2021/12/21 01:31:26;;;;;;;15.10;3.33;;;6.10;99.90;;;;;;5086906;28;20016;-73
2021/12/21 01:39:53;;;;;;;23.95;4.50;;;6.10;99.90;;;;;;5085470;28;20189;-73
2021/12/21 01:42:20;;;;;;;16.17;3.33;;;6.00;99.90;;;;;;5085521;28;20219;-74
2021/12/21 01:50:17;;;;;;;31.83;4.45;;;6.00;99.90;;;;;;5071589;28;20028;-74
2021/12/21 01:52:43;;;;;;;21.90;3.78;;;6.00;99.90;;;;;;5086473;28;20017;-74
2021/12/21 01:55:09;;;;;;;20.00;3.78;;;6.00;99.90;;;;;;5085037;28;20071;-73
2021/12/21 01:57:35;;;;;;;23.42;3.60;;;5.90;99.90;;;;;;5085929;28;20315;-72
2021/12/21 02:00:01;;;;;;;18.85;4.15;;;5.90;99.90;;;;;;5085940;28;20020;-73
2021/12/21 02:02:26;;;;;;;29.23;4.32;;;5.90;99.90;;;;;;5086065;28;20021;-73
2021/12/21 02:04:52;;;;;;;24.20;3.53;;;5.80;99.90;;;;;;5086200;28;20047;-73
2021/12/21 02:07:18;;;;;;;16.92;3.85;;;5.80;99.90;;;;;;5084880;28;20036;-73
2021/12/21 02:09:44;;;;;;;25.75;4.13;;;5.80;99.90;;;;;;5084017;28;20017;-73
2021/12/21 02:12:12;;;;;;;20.48;3.17;;;5.80;99.90;;;;;;5086103;28;20048;-73
2021/12/21 02:14:40;;;;;;;21.13;3.35;;;5.70;99.90;;;;;;5085021;28;20020;-73
2021/12/21 02:20:41;;;;;;;17.90;3.58;;;5.70;99.90;;;;;;5071376;28;20028;-74
2021/12/21 02:23:06;;;;;;;24.77;3.55;;;5.70;99.90;;;;;;5071345;28;20056;-73
2021/12/21 02:25:51;;;;;;;27.88;5.10;;;5.70;99.90;;;;;;5085680;28;20021;-73
2021/12/21 02:28:46;;;;;;;16.60;3.20;;;5.70;99.90;;;;;;5086774;28;20016;-72
2021/12/21 02:31:03;;;;;;;27.95;4.35;;;5.70;99.90;;;;;;5096395;28;20040;-74
2021/12/21 02:33:29;;;;;;;18.10;3.83;;;5.70;99.90;;;;;;5095290;28;20028;-72
2021/12/21 02:35:57;;;;;;;26.63;3.78;;;5.70;99.90;;;;;;5095817;28;20016;-72
2021/12/21 02:38:23;;;;;;;22.83;3.97;;;5.70;99.90;;;;;;5093578;28;20029;-72
2021/12/21 02:40:49;;;;;;;17.75;4.20;;;5.70;99.90;;;;;;5090245;28;20016;-73
2021/12/21 02:43:15;;;;;;;26.30;4.10;;;5.60;99.90;;;;;;5086329;28;20025;-74
2021/12/21 02:45:42;;;;;;;20.70;3.20;;;5.60;99.90;;;;;;5085330;28;20043;-72
2021/12/21 02:48:08;;;;;;;17.17;4.25;;;5.60;99.90;;;;;;5087017;28;20035;-73
2021/12/21 02:50:36;;;;;;;28.65;3.67;;;5.60;99.90;;;;;;5086319;28;20028;-73
2021/12/21 02:53:02;;;;;;;20.27;3.35;;;5.60;99.90;;;;;;5085847;28;20058;-73
2021/12/21 02:55:28;;;;;;;15.60;3.03;;;5.60;99.90;;;;;;5086892;28;20032;-73
2021/12/21 02:57:57;;;;;;;19.92;3.33;;;5.60;99.90;;;;;;5084840;28;20307;-73
2021/12/21 03:00:24;;;;;;;24.25;3.97;;;5.70;99.90;;;;;;5084930;28;20306;-74
2021/12/21 03:02:49;;;;;;;21.77;3.28;;;5.70;99.90;;;;;;5085103;28;20048;-74
2021/12/21 03:05:15;;;;;;;20.23;3.20;;;5.70;99.90;;;;;;5084612;28;20032;-74
2021/12/21 03:10:28;;;;;;;19.33;3.67;;;5.70;99.90;;;;;;5068020;28;20027;-73
2021/12/21 03:15:39;;;;;;;21.25;3.58;;;5.70;99.90;;;;;;5083524;28;20051;-73
2021/12/21 03:18:05;;;;;;;20.20;3.60;;;5.70;99.90;;;;;;5084637;28;20032;-74
2021/12/21 03:20:32;;;;;;;17.35;3.75;;;5.70;99.90;;;;;;5083214;28;20093;-73
2021/12/21 03:22:57;;;;;;;25.27;4.45;;;5.80;99.90;;;;;;5084307;28;20052;-74
2021/12/21 03:25:24;;;;;;;24.95;3.53;;;5.70;99.90;;;;;;5084506;28;20332;-74
2021/12/21 03:27:49;;;;;;;24.75;3.63;;;5.70;99.90;;;;;;5082738;28;20350;-73
2021/12/21 03:30:16;;;;;;;10.00;2.60;;;5.70;99.90;;;;;;5083205;28;20020;-73
2021/12/21 03:32:42;;;;;;;22.67;3.58;;;5.70;99.90;;;;;;5084471;28;20023;-73
2021/12/21 03:35:08;;;;;;;18.23;3.35;;;5.70;99.90;;;;;;5084394;28;20207;-73
2021/12/21 03:37:34;;;;;;;17.65;3.33;;;5.60;99.90;;;;;;5084556;28;20051;-73
2021/12/21 03:40:02;;;;;;;19.67;3.55;;;5.60;99.90;;;;;;5083939;28;20033;-74
2021/12/21 03:42:28;;;;;;;19.38;3.22;;;5.60;99.90;;;;;;5066665;28;20032;-71
2021/12/21 03:44:54;;;;;;;21.83;4.43;;;5.60;99.90;;;;;;5083155;28;20043;-72
2021/12/21 03:47:22;;;;;;;22.83;2.97;;;5.60;99.90;;;;;;5084263;28;20307;-71
2021/12/21 03:49:59;;;;;;;18.33;3.30;;;5.60;99.90;;;;;;5083999;28;20223;-71
2021/12/21 03:52:27;;;;;;;31.35;5.32;;;5.70;99.90;;;;;;5084279;28;20051;-71
2021/12/21 03:54:56;;;;;;;15.43;3.17;;;5.70;99.90;;;;;;5083086;28;20092;-71
2021/12/21 03:57:23;;;;;;;16.33;3.70;;;5.70;99.90;;;;;;5065935;28;20051;-71
2021/12/21 03:59:49;;;;;;;22.92;4.22;;;5.80;99.90;;;;;;5082706;28;20027;-71
2021/12/21 04:02:16;;;;;;;20.17;3.25;;;5.80;99.90;;;;;;5084142;28;20029;-73
2021/12/21 04:04:43;;;;;;;16.05;3.55;;;5.80;99.90;;;;;;5083003;28;20209;-74
2021/12/21 04:07:09;;;;;;;19.80;4.43;;;5.80;99.90;;;;;;5084064;28;20020;-73
2021/12/21 04:09:34;;;;;;;19.88;3.40;;;5.70;99.90;;;;;;5083188;28;20026;-74
2021/12/21 04:12:01;;;;;;;19.75;3.65;;;5.70;99.90;;;;;;5082903;28;20046;-73
2021/12/21 04:14:29;;;;;;;13.60;3.55;;;5.80;99.90;;;;;;5084046;28;20024;-73
2021/12/21 04:16:55;;;;;;;25.77;4.07;;;5.80;99.90;;;;;;5084011;28;20093;-73
2021/12/21 04:19:21;;;;;;;19.23;3.97;;;5.80;99.90;;;;;;5083479;28;20020;-73
2021/12/21 04:21:47;;;;;;;20.15;3.92;;;5.80;99.90;;;;;;5083924;28;20304;-74
2021/12/21 04:24:13;;;;;;;22.92;3.53;;;5.70;99.90;;;;;;5083626;28;20020;-74
2021/12/21 04:26:39;;;;;;;17.83;3.00;;;5.70;99.90;;;;;;5082472;28;20024;-73
2021/12/21 04:29:05;;;;;;;20.83;3.30;;;5.70;99.90;;;;;;5083273;28;20022;-73
2021/12/21 04:31:31;;;;;;;15.55;4.15;;;5.70;99.90;;;;;;5082789;28;20040;-73
2021/12/21 04:33:56;;;;;;;24.13;4.13;;;5.60;99.90;;;;;;5083749;28;20023;-73
2021/12/21 04:36:22;;;;;;;18.35;3.83;;;5.60;99.90;;;;;;5083892;28;20080;-74
2021/12/21 04:38:50;;;;;;;20.65;3.67;;;5.60;99.90;;;;;;5083486;28;20025;-74
2021/12/21 04:41:27;;;;;;;14.30;3.55;;;5.60;99.90;;;;;;5083632;28;20303;-74
2021/12/21 04:43:55;;;;;;;17.33;3.78;;;5.60;99.90;;;;;;5082685;28;20241;-73
2021/12/21 04:46:20;;;;;;;23.42;3.72;;;5.60;99.90;;;;;;5083552;28;20024;-73
2021/12/21 04:48:47;;;;;;;22.90;4.18;;;5.60;99.90;;;;;;5083747;28;20016;-73
2021/12/21 04:51:12;;;;;;;22.52;4.22;;;5.50;99.90;;;;;;5082567;28;20033;-73
2021/12/21 04:53:39;;;;;;;23.83;3.53;;;5.50;99.90;;;;;;5083402;28;20088;-74
2021/12/21 04:56:05;;;;;;;19.13;3.95;;;5.50;99.90;;;;;;5083529;28;20073;-73
2021/12/21 04:58:31;;;;;;;16.85;3.15;;;5.60;99.90;;;;;;5065570;28;20024;-74
2021/12/21 05:00:57;;;;;;;22.42;3.83;;;5.50;99.90;;;;;;5083054;28;20082;-74
2021/12/21 05:03:24;;;;;;;15.60;3.30;;;5.50;99.90;;;;;;5083523;28;20028;-73
2021/12/21 05:05:50;;;;;;;18.40;3.72;;;5.50;99.90;;;;;;5082209;28;20211;-73
2021/12/21 05:08:33;;;;;;;18.85;3.90;;;5.60;99.90;;;;;;5081951;28;20016;-73
2021/12/21 05:11:03;;;;;;;20.25;4.15;;;5.60;99.90;;;;;;5081053;28;20027;-73
2021/12/21 05:13:33;;;;;;;21.05;3.75;;;5.60;99.90;;;;;;5083469;28;20024;-73
2021/12/21 05:15:59;;;;;;;19.60;3.75;;;5.50;99.90;;;;;;5049090;28;20193;-74
2021/12/21 05:18:26;;;;;;;21.00;4.68;;;5.50;99.90;;;;;;5082255;28;20048;-74
2021/12/21 05:20:52;;;;;;;18.33;4.82;;;5.50;99.90;;;;;;5083223;28;20024;-73
2021/12/21 05:23:18;;;;;;;16.40;4.05;;;5.50;99.90;;;;;;5086838;28;20052;-73
2021/12/21 05:25:44;;;;;;;18.42;4.38;;;5.40;99.90;;;;;;5086770;28;20020;-73
2021/12/21 05:28:12;;;;;;;19.85;5.63;;;5.40;99.90;;;;;;5086544;28;20016;-73
2021/12/21 05:30:38;;;;;;;22.33;4.72;;;5.40;99.90;;;;;;5085244;28;20028;-74
2021/12/21 05:33:05;;;;;;;17.45;4.32;;;5.40;99.90;;;;;;5086664;28;20032;-74
2021/12/21 05:35:33;;;;;;;18.67;4.40;;;5.30;99.90;;;;;;5086948;28;20028;-73
2021/12/21 05:38:02;;;;;;;18.10;4.13;;;5.30;99.90;;;;;;5086611;28;20024;-73
2021/12/21 05:40:38;;;;;;;26.73;4.38;;;5.40;99.90;;;;;;5093665;28;20043;-73
2021/12/21 05:43:06;;;;;;;18.70;4.78;;;5.30;99.90;;;;;;5098640;28;20077;-73
2021/12/21 05:45:32;;;;;;;20.17;4.45;;;5.40;99.90;;;;;;5097171;28;20212;-73
2021/12/21 05:47:58;;;;;;;19.83;3.83;;;5.30;99.90;;;;;;5094358;28;20020;-74
2021/12/21 05:50:24;;;;;;;22.10;4.50;;;5.40;99.90;;;;;;5093323;28;20110;-74
2021/12/21 05:52:50;;;;;;;26.48;5.18;;;5.40;99.90;;;;;;5085693;28;20028;-74
2021/12/21 05:55:17;;;;;;;19.15;5.22;;;5.40;99.90;;;;;;5086616;28;20080;-73
2021/12/21 05:57:44;;;;;;;17.33;4.30;;;5.40;99.90;;;;;;5084896;28;20043;-73
2021/12/21 06:00:14;;;;;;;17.40;4.07;;;5.40;99.90;;;;;;5085016;28;20036;-74
2021/12/21 06:02:40;;;;;;;20.27;4.75;;;5.40;99.90;;;;;;5086285;28;20051;-74
2021/12/21 06:05:07;;;;;;;19.77;4.57;;;5.40;99.90;;;;;;5085924;28;20403;-73
2021/12/21 06:07:33;;;;;;;16.80;3.83;;;5.40;99.90;;;;;;5084671;28;20016;-73
2021/12/21 06:10:08;;;;;;;16.60;3.85;;;5.40;99.90;;;;;;5068361;28;20211;-73
2021/12/21 06:12:56;;;;;;;19.83;4.50;;;5.30;99.90;;;;;;5083328;28;20307;-73
2021/12/21 06:15:36;;;;;;;16.10;3.95;;;5.30;99.90;;;;;;5085154;28;20315;-73
2021/12/21 06:24:03;;;;;;;15.52;4.70;;;5.20;99.90;;;;;;5070412;28;20228;-71
2021/12/21 06:26:20;;;;;;;21.80;5.07;;;5.20;99.90;;;;;;5084746;28;20112;-74
2021/12/21 06:28:46;;;;;;;18.08;4.00;;;5.20;99.90;;;;;;5085318;28;20307;-73
2021/12/21 06:31:12;;;;;;;21.35;4.95;;;5.10;99.90;;;;;;5085345;28;20062;-73
2021/12/21 06:33:38;;;;;;;25.67;6.85;;;5.10;99.90;;;;;;5084143;28;20250;-73
2021/12/21 06:36:05;;;;;;;19.35;4.30;;;5.10;99.90;;;;;;5084666;28;20354;-74
2021/12/21 06:38:31;;;;;;;23.25;4.40;;;5.10;99.90;;;;;;5085530;28;20048;-73
2021/12/21 06:40:57;;;;;;;19.45;4.97;;;5.10;99.90;;;;;;5085301;28;20196;-73
2021/12/21 06:43:23;;;;;;;32.45;6.50;;;5.10;99.90;;;;;;5085513;28;20311;-74
2021/12/21 06:46:05;;;;;;;20.13;5.25;;;5.10;99.90;;;;;;5085350;28;20066;-75
2021/12/21 06:51:32;;;;;;;17.83;4.75;;;5.20;99.90;;;;;;5078162;28;20212;-74
2021/12/21 06:53:59;;;;;;;20.98;4.55;;;5.30;99.90;;;;;;5065000;28;20024;-74
2021/12/21 06:56:27;;;;;;;20.02;4.65;;;5.30;99.90;;;;;;5065133;28;20074;-73
2021/12/21 06:58:55;;;;;;;22.23;5.30;;;5.30;99.90;;;;;;5064802;28;20020;-73
2021/12/21 07:01:22;;;;;;;16.95;5.47;;;5.40;99.90;;;;;;5064726;28;20037;-73
2021/12/21 07:03:48;;;;;;;17.55;5.05;;;5.40;99.90;;;;;;5065169;28;20020;-73
2021/12/21 07:06:16;;;;;;;25.98;5.25;;;5.30;99.90;;;;;;5064958;28;20024;-74
2021/12/21 07:08:46;;;;;;;23.92;4.95;;;5.30;99.90;;;;;;5064817;28;20139;-73
2021/12/21 07:11:21;;;;;;;19.00;5.05;;;5.30;99.90;;;;;;5064730;28;20017;-73
2021/12/21 07:19:18;;;;;;;20.27;4.55;;;5.40;99.90;;;;;;5050058;28;20021;-72
2021/12/21 07:21:44;;;;;;;21.70;4.90;;;5.30;99.90;;;;;;5064250;28;20044;-71
2021/12/21 07:24:10;;;;;;;22.20;4.85;;;5.40;99.90;;;;;;5064627;28;20029;-73
2021/12/21 07:26:35;;;;;;;18.65;4.95;;;5.40;99.90;;;;;;5064572;28;20212;-73
2021/12/21 07:29:01;;;;;;;21.60;5.45;;;5.40;99.90;;;;;;5064226;28;20020;-73
2021/12/21 07:31:28;;;;;;;20.17;5.35;;;5.30;99.90;;;;;;5071727;28;20215;-73
2021/12/21 07:33:54;;;;;;;16.52;5.25;;;5.30;99.90;;;;;;5084320;28;20245;-73
2021/12/21 07:36:20;;;;;;;19.42;5.03;;;5.30;99.90;;;;;;5084517;28;20032;-73
2021/12/21 07:38:45;;;;;;;16.05;5.00;;;5.30;99.90;;;;;;5084296;28;20322;-74
2021/12/21 07:41:12;;;;;;;22.98;5.53;;;5.20;99.90;;;;;;5084293;28;20024;-72
2021/12/21 07:43:37;;;;;;;19.08;5.68;;;5.20;99.90;;;;;;5083913;28;20043;-73
2021/12/21 07:46:03;;;;;;;23.10;5.70;;;5.20;99.90;;;;;;5083955;28;20047;-73
2021/12/21 07:48:29;;;;;;;20.67;5.72;;;5.20;99.90;;;;;;5083301;28;20028;-72
2021/12/21 07:50:55;;;;;;;20.83;6.35;;;5.20;99.90;;;;;;5084199;28;20216;-73
2021/12/21 07:53:22;;;;;;;21.30;5.88;;;5.30;99.90;;;;;;5083821;28;20028;-73
2021/12/21 07:55:47;;;;;;;17.02;5.55;;;5.30;99.90;;;;;;5083093;28;20054;-73
2021/12/21 07:58:13;;;;;;;22.70;5.60;;;5.20;99.90;;;;;;5082904;28;20016;-74
2021/12/21 08:00:39;;;;;;;24.35;6.80;;;5.20;99.90;;;;;;5082976;28;20032;-74
2021/12/21 08:03:05;;;;;;;18.65;5.43;;;5.20;99.90;;;;;;5082851;28;20227;-74
2021/12/21 08:05:34;;;;;;;24.10;6.28;;;5.20;99.90;;;;;;5084133;28;20091;-74
2021/12/21 08:08:12;;;;;;;25.83;6.65;;;5.20;99.90;;;;;;5083832;28;20017;-74
2021/12/21 08:10:45;;;;;;;22.42;6.80;;;5.20;99.90;;;;;;5084118;28;20252;-74
2021/12/21 08:13:11;;;;;;;24.30;6.80;;;5.20;99.90;;;;;;5082076;28;20040;-73
2021/12/21 08:15:37;;;;;;;22.20;6.10;;;5.20;99.90;;;;;;5084101;28;20405;-74
2021/12/21 08:18:03;;;;;;;25.05;6.75;;;5.20;99.90;;;;;;5082510;28;20016;-72
2021/12/21 08:20:29;;;;;;;22.13;6.80;;;5.10;99.90;;;;;;5083743;28;20270;-73
2021/12/21 08:22:56;;;;;;;16.45;6.88;;;5.10;99.90;;;;;;5083181;28;20108;-73
2021/12/21 08:25:24;;;;;;;29.15;7.35;;;5.10;99.90;;;;;;5084016;28;20028;-73
2021/12/21 08:27:51;;;;;;;27.92;7.55;;;5.10;99.90;;;;;;5083361;28;20012;-73
2021/12/21 08:30:17;;;;;;;23.33;7.18;;;5.20;99.90;;;;;;5083479;28;20031;-73
2021/12/21 08:32:43;;;;;;;27.85;7.70;;;5.10;99.90;;;;;;5083665;28;20084;-74
2021/12/21 08:35:12;;;;;;;21.85;8.13;;;5.20;99.90;;;;;;5083311;28;20020;-75
2021/12/21 08:37:38;;;;;;;25.52;7.75;;;5.20;99.90;;;;;;5083715;28;20070;-73
2021/12/21 08:40:06;;;;;;;23.58;8.00;;;5.20;99.90;;;;;;5083873;28;20016;-74
2021/12/21 08:42:33;;;;;;;25.85;7.93;;;5.20;99.90;;;;;;5082451;28;20112;-74
2021/12/21 08:45:01;;;;;;;26.00;7.25;;;5.20;99.90;;;;;;5083623;28;20105;-74
2021/12/21 08:47:28;;;;;;;27.05;8.18;;;5.30;99.90;;;;;;5083611;28;20040;-74
2021/12/21 08:49:54;;;;;;;31.27;8.15;;;5.30;99.90;;;;;;5083733;28;20084;-75
2021/12/21 08:52:19;;;;;;;24.00;8.35;;;5.30;99.90;;;;;;5092046;28;20028;-74
2021/12/21 08:54:45;;;;;;;25.60;8.55;;;5.30;99.90;;;;;;5095700;28;20336;-73
2021/12/21 08:57:11;;;;;;;23.45;8.45;;;5.30;99.90;;;;;;5096385;28;20020;-74
2021/12/21 08:59:36;;;;;;;30.20;9.57;;;5.40;99.90;;;;;;5096168;28;20020;-74
2021/12/21 09:02:02;;;;;;;28.15;8.25;;;5.50;99.90;;;;;;5092884;28;20024;-73
2021/12/21 09:04:28;;;;;;;31.75;9.18;;;5.50;99.90;;;;;;5087462;28;20051;-74
2021/12/21 09:06:54;;;;;;;27.88;8.85;;;5.60;99.90;;;;;;5087042;28;20013;-74
2021/12/21 09:09:20;;;;;;;21.02;7.93;;;5.60;99.90;;;;;;5087163;28;20020;-73
2021/12/21 09:11:46;;;;;;;20.85;7.95;;;5.70;99.90;;;;;;5086762;28;20087;-72
2021/12/21 09:14:12;;;;;;;18.13;7.93;;;5.70;99.70;;;;;;5084112;28;20012;-75
2021/12/21 09:16:38;;;;;;;22.25;8.88;;;5.80;99.60;;;;;;5087187;28;20074;-74
2021/12/21 09:19:04;;;;;;;22.25;9.07;;;5.90;99.80;;;;;;5086997;28;20016;-74
2021/12/21 09:21:31;;;;;;;20.50;7.20;;;5.90;99.60;;;;;;5086847;28;20052;-75
2021/12/21 09:23:56;;;;;;;23.48;7.32;;;6.00;99.00;;;;;;5085162;28;20044;-74
2021/12/21 09:26:22;;;;;;;27.58;8.18;;;5.90;98.90;;;;;;5086871;28;20105;-72
2021/12/21 09:28:48;;;;;;;19.00;6.60;;;5.90;98.90;;;;;;5086518;28;20051;-72
2021/12/21 09:31:14;;;;;;;21.10;6.45;;;5.90;98.50;;;;;;5086883;28;20074;-73
2021/12/21 09:33:39;;;;;;;21.27;6.53;;;5.90;98.30;;;;;;5086273;28;20203;-73
2021/12/21 09:36:05;;;;;;;23.10;7.13;;;5.90;98.10;;;;;;5086645;28;20054;-73
2021/12/21 09:38:31;;;;;;;19.73;6.85;;;5.90;98.80;;;;;;5086424;28;20020;-74
2021/12/21 09:40:57;;;;;;;21.13;6.97;;;6.00;98.50;;;;;;5085275;28;20024;-74
2021/12/21 09:43:23;;;;;;;21.27;6.65;;;6.10;98.00;;;;;;5086558;28;20032;-74
2021/12/21 09:45:50;;;;;;;27.05;7.25;;;6.10;97.90;;;;;;5086215;28;20032;-74
2021/12/21 09:48:15;;;;;;;21.88;6.55;;;6.10;98.50;;;;;;5085133;28;20311;-74
2021/12/21 09:50:42;;;;;;;23.55;7.85;;;6.10;98.50;;;;;;5086636;28;20025;-73
2021/12/21 09:53:08;;;;;;;20.50;5.68;;;6.10;97.80;;;;;;5086303;28;20028;-74
2021/12/21 09:55:34;;;;;;;19.15;6.30;;;6.10;97.70;;;;;;5085155;28;20031;-74
2021/12/21 09:57:59;;;;;;;16.13;6.28;;;6.20;98.30;;;;;;5086176;28;20020;-73
2021/12/21 10:00:31;;;;;;;16.80;6.13;;;6.20;98.30;;;;;;5086137;28;20047;-73
2021/12/21 10:03:03;;;;;;;20.05;6.32;;;6.30;97.50;;;;;;5085287;28;20071;-74
2021/12/21 10:05:30;;;;;;;;;;;6.30;97.40;;;;;;5086542;28;20087;-73
2021/12/21 10:08:04;;;;;;;18.13;5.60;;;6.40;97.80;;;;;;5084362;28;19928;-74
2021/12/21 10:10:35;;;;;;;17.13;4.82;;;6.40;97.30;;;;;;5086310;28;20017;-75
2021/12/21 10:13:19;;;;;;;16.17;4.85;;;6.40;97.00;;;;;;5086341;28;20016;-75
2021/12/21 10:15:49;;;;;;;20.77;5.97;;;6.40;97.20;;;;;;5084498;28;20024;-75
2021/12/21 10:18:23;;;;;;;17.83;5.35;;;6.50;97.60;;;;;;5084974;28;20046;-74
2021/12/21 10:20:49;;;;;;;20.15;6.28;;;6.50;96.60;;;;;;5067927;28;20032;-74
2021/12/21 10:23:25;;;;;;;17.00;5.47;;;6.50;96.70;;;;;;5085845;28;20107;-75
2021/12/21 10:25:59;;;;;;;15.00;4.78;;;6.50;96.60;;;;;;5084635;28;20028;-73
2021/12/21 10:28:35;;;;;;;16.02;4.63;;;6.50;96.70;;;;;;5068385;28;20031;-74
2021/12/21 10:31:04;;;;;;;14.43;4.25;;;6.50;96.40;;;;;;5068883;28;20039;-75
2021/12/21 10:33:31;;;;;;;14.70;5.47;;;6.50;96.20;;;;;;5085715;28;20047;-72
2021/12/21 10:35:59;;;;;;;18.33;5.22;;;6.50;96.40;;;;;;5085263;28;20020;-73
2021/12/21 10:38:43;;;;;;;14.85;4.80;;;6.60;96.60;;;;;;5084257;28;20295;-74
2021/12/21 10:41:16;;;;;;;13.07;3.75;;;6.60;96.10;;;;;;5084121;28;20256;-73
2021/12/21 10:43:43;;;;;;;15.75;4.78;;;6.60;95.90;;;;;;5084350;28;20035;-73
2021/12/21 10:46:10;;;;;;;13.23;3.60;;;6.60;95.90;;;;;;5083865;28;20308;-74
2021/12/21 10:48:37;;;;;;;13.77;4.35;;;6.60;96.10;;;;;;5085600;28;20028;-75
2021/12/21 10:51:08;;;;;;;15.52;4.32;;;6.70;95.80;;;;;;5083777;28;20017;-75
2021/12/21 10:53:34;;;;;;;22.25;4.65;;;6.70;95.60;;;;;;5085323;28;20023;-75
2021/12/21 10:56:05;;;;;;;12.65;4.20;;;6.60;95.60;;;;;;5084019;28;20032;-73
2021/12/21 10:58:31;;;;;;;13.15;4.45;;;6.70;96.10;;;;;;5086073;28;20027;-72
2021/12/21 11:01:02;;;;;;;12.57;4.47;;;6.60;95.70;;;;;;5087723;28;20024;-74
2021/12/21 11:03:50;;;;;;;15.70;4.50;;;6.60;95.90;;;;;;5088183;28;20246;-73
2021/12/21 11:06:19;;;;;;;11.70;4.70;;;6.70;95.90;;;;;;5087591;28;20081;-75
2021/12/21 11:08:48;;;;;;;16.15;4.22;;;6.70;96.20;;;;;;5085352;28;20051;-73
2021/12/21 11:11:29;;;;;;;13.60;4.43;;;6.70;95.60;;;;;;5084131;28;20227;-75
2021/12/21 11:14:14;;;;;;;15.45;4.10;;;6.70;95.30;;;;;;5083813;28;20016;-73
2021/12/21 11:16:50;;;;;;;21.55;4.93;;;6.80;95.40;;;;;;5081538;28;20028;-74
2021/12/21 11:19:18;;;;;;;22.15;5.38;;;6.90;95.90;;;;;;5082841;28;20028;-73
2021/12/21 11:21:45;;;;;;;18.48;4.97;;;6.90;95.40;;;;;;5083333;28;20309;-74
2021/12/21 11:24:14;;;;;;;10.55;4.60;;;6.90;95.20;;;;;;5083473;28;20082;-72
2021/12/21 11:26:42;;;;;;;15.43;4.40;;;6.90;95.10;;;;;;5083420;28;20036;-74
2021/12/21 11:29:11;;;;;;;12.32;4.55;;;6.90;95.20;;;;;;5066584;28;20024;-75
2021/12/21 11:31:39;;;;;;;14.60;4.63;;;6.90;95.10;;;;;;5083556;28;20084;-73
2021/12/21 11:34:15;;;;;;;13.43;4.70;;;6.90;94.80;;;;;;5084136;28;20304;-75
2021/12/21 11:39:32;;;;;;;15.55;5.22;;;6.90;95.10;;;;;;5083526;28;20246;-77
2021/12/21 11:42:00;;;;;;;16.48;4.75;;;6.90;95.00;;;;;;5083113;28;20028;-74
2021/12/21 11:44:52;;;;;;;14.27;5.28;;;6.90;95.20;;;;;;5083272;28;20204;-75
2021/12/21 11:47:27;;;;;;;17.13;5.22;;;6.90;95.40;;;;;;5083054;28;20274;-75
2021/12/21 11:49:59;;;;;;;14.57;4.97;;;6.90;95.80;;;;;;5084309;28;20020;-75
2021/12/21 11:52:28;;;;;;;11.77;5.05;;;6.90;95.40;;;;;;5083308;28;20024;-74
2021/12/21 11:54:56;;;;;;;18.60;6.00;;;6.80;95.50;;;;;;5084182;28;20051;-75
2021/12/21 11:57:41;;;;;;;13.90;5.10;;;6.80;95.70;;;;;;5083833;28;20017;-75
2021/12/21 12:00:11;;;;;;;13.13;5.60;;;6.90;95.60;;;;;;5084329;28;20067;-74
2021/12/21 12:02:38;;;;;;;19.77;5.93;;;6.90;95.40;;;;;;5084402;28;20025;-75
2021/12/21 12:05:15;;;;;;;19.27;5.50;;;7.00;94.80;;;;;;5088043;28;20013;-74
2021/12/21 12:07:41;;;;;;;16.00;6.20;;;7.10;95.30;;;;;;5096047;28;20080;-75
2021/12/21 12:10:10;;;;;;;20.13;5.65;;;7.10;95.20;;;;;;5095501;28;20028;-73
2021/12/21 12:12:36;;;;;;;15.05;5.47;;;7.00;94.60;;;;;;5091131;28;20223;-75
2021/12/21 12:15:05;;;;;;;18.48;5.53;;;6.90;94.60;;;;;;5068400;28;20028;-74
2021/12/21 12:17:31;;;;;;;10.18;4.93;;;6.80;94.80;;;;;;5064682;28;20326;-75
2021/12/21 12:20:03;;;;;;;12.18;6.20;;;6.90;95.20;;;;;;5083780;28;20019;-75
2021/12/21 12:22:43;;;;;;;14.75;6.18;;;6.90;95.00;;;;;;5082476;28;20049;-74
2021/12/21 12:25:23;;;;;;;18.23;5.78;;;7.00;94.90;;;;;;5083958;28;20107;-74
2021/12/21 12:27:51;;;;;;;19.70;6.45;;;7.00;95.00;;;;;;5082479;28;20032;-74
2021/12/21 12:30:21;;;;;;;12.02;5.13;;;7.10;94.60;;;;;;5066714;28;20032;-77
2021/12/21 12:32:55;;;;;;;18.05;6.63;;;7.00;94.50;;;;;;5086784;28;20250;-75
2021/12/21 12:35:25;;;;;;;15.50;6.35;;;6.90;94.60;;;;;;5086877;28;20068;-75
2021/12/21 12:38:02;;;;;;;13.40;6.63;;;6.90;94.90;;;;;;5087669;28;20304;-74
2021/12/21 12:40:31;;;;;;;17.05;7.15;;;7.00;95.30;;;;;;5087045;28;20099;-76
2021/12/21 12:43:02;;;;;;;16.23;6.72;;;7.10;94.60;;;;;;5086410;28;20024;-74
2021/12/21 12:45:38;;;;;;;14.63;6.38;;;7.00;94.50;;;;;;5086611;28;20048;-74
2021/12/21 12:48:17;;;;;;;17.00;7.72;;;7.00;95.10;;;;;;5086206;28;20303;-74
2021/12/21 12:50:45;;;;;;;20.15;6.93;;;7.00;94.90;;;;;;5086478;28;20027;-74
2021/12/21 12:53:10;;;;;;;15.60;7.40;;;6.90;94.30;;;;;;5087560;28;20020;-74
2021/12/21 12:55:58;;;;;;;18.02;8.15;;;7.00;94.30;;;;;;5069777;28;20036;-74
2021/12/21 12:58:25;;;;;;;14.90;7.13;;;7.00;94.50;;;;;;5086752;28;20027;-76
2021/12/21 13:01:18;;;;;;;12.02;6.40;;;6.90;94.40;;;;;;5069563;28;20021;-75
2021/12/21 13:03:44;;;;;;;12.27;6.78;;;6.90;94.80;;;;;;5086600;28;20060;-75
2021/12/21 13:06:15;;;;;;;14.98;7.38;;;6.90;94.70;;;;;;5086926;28;20012;-73
2021/12/21 13:08:42;;;;;;;15.63;7.00;;;7.00;95.00;;;;;;5085911;28;20035;-76
2021/12/21 13:11:09;;;;;;;13.93;6.82;;;6.90;94.40;;;;;;5085972;28;20020;-75
2021/12/21 13:13:38;;;;;;;17.27;7.38;;;6.90;94.40;;;;;;5086149;28;20024;-75
2021/12/21 13:16:08;;;;;;;18.45;7.78;;;6.80;94.30;;;;;;5069027;28;20017;-75
2021/12/21 13:18:55;;;;;;;15.25;6.78;;;6.70;94.90;;;;;;5085475;28;20020;-75
2021/12/21 13:21:47;;;;;;;18.88;6.25;;;6.60;94.50;;;;;;5085776;28;20184;-75
2021/12/21 13:24:18;;;;;;;19.67;7.43;;;6.60;94.80;;;;;;5072820;28;20040;-75
2021/12/21 13:26:50;;;;;;;29.33;8.38;;;6.70;94.80;;;;;;5069719;28;20146;-75
2021/12/21 13:29:18;;;;;;;35.92;9.27;;;6.70;95.00;;;;;;5086241;28;20023;-74
2021/12/21 13:31:47;;;;;;;47.65;9.32;;;6.70;94.70;;;;;;5086660;28;20234;-74
2021/12/21 13:34:14;;;;;;;15.30;6.72;;;6.90;94.70;;;;;;5085634;28;20051;-74
2021/12/21 13:36:43;;;;;;;13.77;6.45;;;6.90;94.50;;;;;;5086643;28;20038;-74
2021/12/21 13:39:23;;;;;;;14.23;6.70;;;6.90;94.80;;;;;;5085265;28;20024;-75
2021/12/21 13:42:08;;;;;;;12.60;7.00;;;6.80;94.60;;;;;;5084831;28;20257;-76
2021/12/21 13:44:37;;;;;;;16.80;7.53;;;6.60;94.50;;;;;;5086492;28;20218;-73
2021/12/21 13:47:15;;;;;;;18.30;7.72;;;6.50;95.10;;;;;;5086463;28;20311;-74
2021/12/21 13:50:23;;;;;;;19.10;7.35;;;6.50;95.30;;;;;;5068045;28;20212;-74